Time;durP1;ratioP1;P1;durP2;ratioP2;P2;SDS_P1;SDS_P2;PMS_P1;PMS_P2;Temp;Humidity;BMP_temperature;BMP_pressure;BME280_temperature;BME280_humidity;BME280_pressure;Samples;Min_cycle;Max_cycle;Signal;HPM_P1;HPM_P2
2021/07/05 00:02:04;;;;;;;2.20;0.90;;;;;;;14.73;100.00;95559.53;5012066;28;20420;-73
2021/07/05 00:04:29;;;;;;;2.00;0.90;;;;;;;14.76;100.00;95566.28;5015474;28;20409;-73
2021/07/05 00:06:54;;;;;;;1.50;0.70;;;;;;;14.84;100.00;95570.88;5014903;28;20413;-73
2021/07/05 00:09:20;;;;;;;0.50;0.40;;;;;;;14.90;100.00;95572.94;5013554;28;20776;-73
2021/07/05 00:11:47;;;;;;;2.13;0.77;;;;;;;14.95;100.00;95570.81;5012868;28;20412;-73
2021/07/05 00:14:14;;;;;;;2.80;0.70;;;;;;;14.95;100.00;95562.97;5012639;28;20504;-73
2021/07/05 00:16:39;;;;;;;2.42;0.80;;;;;;;15.03;100.00;95554.50;5012364;28;20424;-73
2021/07/05 00:19:05;;;;;;;4.72;1.02;;;;;;;15.05;100.00;95557.81;5012559;28;20428;-73
2021/07/05 00:21:30;;;;;;;1.07;0.67;;;;;;;15.06;100.00;95541.22;5012444;28;20420;-73
2021/07/05 00:23:56;;;;;;;3.33;0.80;;;;;;;15.06;100.00;95543.84;5012486;28;20894;-73
2021/07/05 00:26:21;;;;;;;1.20;0.70;;;;;;;15.07;100.00;95543.69;5012096;28;20412;-73
2021/07/05 00:28:48;;;;;;;1.70;0.70;;;;;;;15.06;100.00;95536.00;5012362;28;20751;-73
2021/07/05 00:31:13;;;;;;;3.85;0.90;;;;;;;15.09;100.00;95535.72;5012282;28;20440;-73
2021/07/05 00:33:39;;;;;;;2.90;0.83;;;;;;;14.94;100.00;95540.44;5012334;28;20898;-73
2021/07/05 00:36:04;;;;;;;1.60;0.70;;;;;;;14.89;100.00;95553.06;5012062;28;20425;-73
2021/07/05 00:38:31;;;;;;;2.93;0.80;;;;;;;14.63;100.00;95550.81;5012449;28;20928;-73
2021/07/05 00:40:56;;;;;;;1.60;0.80;;;;;;;14.73;100.00;95553.50;5012156;28;20938;-73
2021/07/05 00:43:22;;;;;;;2.20;0.77;;;;;;;14.70;100.00;95553.75;5010798;28;20471;-73
2021/07/05 00:45:48;;;;;;;1.17;0.70;;;;;;;14.70;100.00;95548.53;5011860;28;20416;-73
2021/07/05 00:48:14;;;;;;;2.42;0.75;;;;;;;14.60;100.00;95538.03;5012104;28;20408;-73
2021/07/05 00:50:40;;;;;;;2.40;0.90;;;;;;;14.56;100.00;95535.81;5011952;28;20417;-73
2021/07/05 00:53:05;;;;;;;1.80;0.80;;;;;;;14.44;100.00;95548.03;5012058;28;20487;-73
2021/07/05 00:55:32;;;;;;;1.83;0.93;;;;;;;14.36;100.00;95538.25;5011642;28;20444;-73
2021/07/05 00:57:58;;;;;;;6.30;0.80;;;;;;;14.42;100.00;95544.72;5011704;28;20451;-73
2021/07/05 01:00:25;;;;;;;1.27;0.70;;;;;;;14.51;100.00;95542.25;5011762;28;20998;-74
2021/07/05 01:02:52;;;;;;;1.17;0.80;;;;;;;14.61;100.00;95541.47;5011719;28;20440;-73
2021/07/05 01:05:18;;;;;;;0.80;0.70;;;;;;;14.61;100.00;95536.25;5011485;28;20424;-73
2021/07/05 01:07:45;;;;;;;1.27;0.82;;;;;;;14.64;100.00;95541.22;5011722;28;20462;-73
2021/07/05 01:10:13;;;;;;;4.35;0.80;;;;;;;14.61;100.00;95534.50;5011607;28;20830;-73
2021/07/05 01:12:39;;;;;;;2.30;0.90;;;;;;;14.65;100.00;95529.88;5011532;28;20412;-73
2021/07/05 01:15:05;;;;;;;2.95;0.95;;;;;;;14.68;100.00;95530.44;5011479;28;20502;-73
2021/07/05 01:17:31;;;;;;;3.00;0.90;;;;;;;14.67;100.00;95530.53;5011286;28;20451;-73
2021/07/05 01:19:58;;;;;;;6.45;1.10;;;;;;;14.53;100.00;95539.50;5011383;28;20412;-73
2021/07/05 01:22:24;;;;;;;2.88;0.98;;;;;;;14.58;100.00;95528.72;5011206;28;20423;-73
2021/07/05 01:24:50;;;;;;;2.20;0.70;;;;;;;14.58;100.00;95526.94;5011385;28;20937;-73
2021/07/05 01:27:16;;;;;;;1.97;0.93;;;;;;;14.42;100.00;95534.31;5011355;28;20423;-73
2021/07/05 01:29:42;;;;;;;2.92;1.02;;;;;;;14.37;100.00;95534.69;5011337;28;20412;-73
2021/07/05 01:32:09;;;;;;;2.25;0.90;;;;;;;14.41;100.00;95519.63;5011233;28;20434;-73
2021/07/05 01:34:36;;;;;;;3.67;0.82;;;;;;;14.37;100.00;95511.25;5011471;28;20914;-73
2021/07/05 01:37:02;;;;;;;3.53;0.98;;;;;;;14.44;100.00;95525.41;5010918;28;20428;-73
2021/07/05 01:39:29;;;;;;;2.30;1.00;;;;;;;14.36;100.00;95521.81;5011224;28;20483;-73
2021/07/05 01:41:55;;;;;;;2.03;0.95;;;;;;;14.46;100.00;95515.72;5011399;28;20447;-73
2021/07/05 01:44:20;;;;;;;0.77;0.53;;;;;;;14.55;100.00;95514.16;5011117;28;20416;-73
2021/07/05 01:46:46;;;;;;;1.95;1.10;;;;;;;14.55;100.00;95508.94;5011050;28;20416;-73
2021/07/05 01:49:11;;;;;;;6.43;1.27;;;;;;;14.54;100.00;95509.06;5009944;28;20941;-73
2021/07/05 01:51:37;;;;;;;2.27;1.07;;;;;;;14.32;100.00;95507.38;5011008;28;20910;-73
2021/07/05 01:54:03;;;;;;;1.37;0.80;;;;;;;14.29;100.00;95511.88;5010943;28;20428;-73
2021/07/05 01:56:30;;;;;;;6.22;1.00;;;;;;;14.32;100.00;95502.16;5010659;28;20510;-73
2021/07/05 01:58:56;;;;;;;1.37;0.90;;;;;;;14.39;100.00;95506.75;5010998;28;20535;-73
2021/07/05 02:01:21;;;;;;;1.37;0.90;;;;;;;14.43;100.00;95512.53;5010928;28;20508;-73
2021/07/05 02:03:47;;;;;;;1.67;1.00;;;;;;;14.30;100.00;95515.28;5011274;28;20443;-73
2021/07/05 02:06:12;;;;;;;3.13;0.80;;;;;;;14.25;100.00;95509.66;5010667;28;20448;-73
2021/07/05 02:08:38;;;;;;;1.42;1.00;;;;;;;14.29;100.00;95498.84;5010830;28;20420;-73
2021/07/05 02:11:04;;;;;;;2.00;1.10;;;;;;;14.34;100.00;95501.06;5010908;28;20417;-73
2021/07/05 02:13:34;;;;;;;1.92;0.93;;;;;;;14.38;100.00;95502.47;5010825;28;20419;-73
2021/07/05 02:16:01;;;;;;;2.25;0.85;;;;;;;14.38;100.00;95499.84;5010767;28;20929;-73
2021/07/05 02:18:28;;;;;;;2.38;0.90;;;;;;;14.41;100.00;95506.59;5010859;28;20425;-73
2021/07/05 02:20:55;;;;;;;1.77;0.82;;;;;;;14.31;100.00;95496.09;5010719;28;20478;-73
2021/07/05 02:23:22;;;;;;;2.22;1.00;;;;;;;14.21;100.00;95488.22;5011018;28;20895;-73
2021/07/05 02:25:48;;;;;;;1.33;1.00;;;;;;;14.21;100.00;95487.41;5010533;28;20424;-73
2021/07/05 02:28:15;;;;;;;2.58;0.95;;;;;;;14.32;100.00;95495.16;5010795;28;20424;-73
2021/07/05 02:30:44;;;;;;;4.35;1.10;;;;;;;14.24;100.00;95487.97;5010988;28;20436;-73
2021/07/05 02:33:10;;;;;;;1.85;0.95;;;;;;;14.30;100.00;95489.25;5010950;28;20921;-73
2021/07/05 02:35:36;;;;;;;1.83;0.90;;;;;;;14.29;100.00;95485.81;5014216;28;20851;-73
2021/07/05 02:38:03;;;;;;;1.60;1.00;;;;;;;14.24;100.00;95485.38;5014378;28;20463;-73
2021/07/05 02:40:32;;;;;;;1.25;0.85;;;;;;;14.37;100.00;95485.19;5013118;28;20424;-73
2021/07/05 02:42:58;;;;;;;1.30;0.90;;;;;;;14.41;100.00;95489.19;5014098;28;20421;-73
2021/07/05 02:45:25;;;;;;;5.10;1.20;;;;;;;14.45;100.00;95503.63;5013880;28;20439;-73
2021/07/05 02:47:54;;;;;;;1.85;0.93;;;;;;;14.39;100.00;95508.53;5014245;28;20420;-73
2021/07/05 02:50:20;;;;;;;2.00;0.95;;;;;;;14.37;100.00;95503.41;5014130;28;20440;-73
2021/07/05 02:52:46;;;;;;;2.42;0.95;;;;;;;14.34;100.00;95498.47;5013956;28;20421;-73
2021/07/05 02:55:12;;;;;;;1.50;0.93;;;;;;;14.39;100.00;95508.53;5012639;28;20428;-73
2021/07/05 02:57:38;;;;;;;1.75;0.98;;;;;;;14.35;100.00;95522.72;5014044;28;20468;-73
2021/07/05 03:00:09;;;;;;;2.55;1.00;;;;;;;14.39;100.00;95504.13;5014023;28;20494;-73
2021/07/05 03:02:35;;;;;;;1.08;0.90;;;;;;;14.44;100.00;95501.97;5013426;28;20475;-73
2021/07/05 03:05:04;;;;;;;2.70;1.10;;;;;;;14.49;100.00;95491.16;5013770;28;20822;-73
2021/07/05 03:07:29;;;;;;;1.02;0.90;;;;;;;14.53;100.00;95487.38;5014727;28;20779;-73
2021/07/05 03:09:55;;;;;;;1.95;1.45;;;;;;;14.54;100.00;95485.63;5014409;28;20432;-73
2021/07/05 03:12:20;;;;;;;2.30;1.00;;;;;;;14.50;100.00;95480.66;5014603;28;20477;-73
2021/07/05 03:14:46;;;;;;;1.97;1.20;;;;;;;14.48;100.00;95469.50;5013804;28;20936;-73
2021/07/05 03:17:12;;;;;;;3.63;1.10;;;;;;;14.50;100.00;95479.84;5013341;28;20421;-73
2021/07/05 03:19:37;;;;;;;2.00;1.10;;;;;;;14.56;100.00;95476.69;5012405;28;20505;-73
2021/07/05 03:22:05;;;;;;;2.43;1.10;;;;;;;14.46;100.00;95483.59;5013599;28;20409;-73
2021/07/05 03:24:30;;;;;;;3.55;1.10;;;;;;;14.34;100.00;95482.81;5013579;28;20428;-73
2021/07/05 03:26:55;;;;;;;1.52;1.05;;;;;;;14.34;100.00;95482.00;5013188;28;20743;-73
2021/07/05 03:29:21;;;;;;;1.00;0.80;;;;;;;14.37;100.00;95490.41;5013724;28;20503;-73
2021/07/05 03:31:46;;;;;;;2.10;0.83;;;;;;;14.29;100.00;95488.44;5013432;28;20413;-73
2021/07/05 03:34:12;;;;;;;1.93;1.37;;;;;;;14.38;100.00;95484.22;5012294;28;20865;-73
2021/07/05 03:36:37;;;;;;;2.30;0.93;;;;;;;14.44;100.00;95467.28;5012986;28;20794;-73
2021/07/05 03:39:05;;;;;;;0.98;0.82;;;;;;;14.45;100.00;95467.13;5013312;28;20416;-73
2021/07/05 03:41:31;;;;;;;5.15;1.08;;;;;;;14.35;100.00;95468.88;5013230;28;20467;-73
2021/07/05 03:43:56;;;;;;;1.17;0.90;;;;;;;14.37;100.00;95468.72;5013005;28;20412;-73
2021/07/05 03:46:22;;;;;;;2.27;1.30;;;;;;;14.41;100.00;95459.72;5012831;28;20436;-72
2021/07/05 03:48:47;;;;;;;1.30;0.97;;;;;;;14.38;100.00;95455.56;5013177;28;20416;-72
2021/07/05 03:51:13;;;;;;;3.70;1.30;;;;;;;14.32;100.00;95457.88;5012969;28;20814;-72
2021/07/05 03:53:38;;;;;;;1.80;0.80;;;;;;;14.20;100.00;95457.09;5013028;28;20448;-72
2021/07/05 03:56:06;;;;;;;2.15;1.10;;;;;;;14.27;100.00;95453.84;5012741;28;20777;-73
2021/07/05 03:58:31;;;;;;;3.63;1.17;;;;;;;14.26;100.00;95457.41;5013035;28;20471;-73
2021/07/05 04:01:00;;;;;;;2.50;1.25;;;;;;;14.25;100.00;95460.16;5012805;28;20416;-73
2021/07/05 04:03:25;;;;;;;1.73;0.90;;;;;;;14.30;100.00;95455.38;5012797;28;20452;-73
2021/07/05 04:05:52;;;;;;;3.83;1.27;;;;;;;14.38;100.00;95457.34;5011265;28;20540;-73
2021/07/05 04:08:18;;;;;;;3.33;1.10;;;;;;;14.43;100.00;95466.44;5012725;28;20420;-73
2021/07/05 04:10:44;;;;;;;1.90;1.10;;;;;;;14.35;100.00;95468.03;5012746;28;20421;-73
2021/07/05 04:13:11;;;;;;;2.97;1.27;;;;;;;14.33;100.00;95468.16;5012610;28;20463;-73
2021/07/05 04:15:36;;;;;;;3.70;1.30;;;;;;;14.33;100.00;95483.78;5012313;28;20898;-73
2021/07/05 04:18:02;;;;;;;2.00;1.20;;;;;;;14.32;100.00;95489.13;5012519;28;20436;-73
2021/07/05 04:20:28;;;;;;;4.28;1.10;;;;;;;14.33;100.00;95498.59;5012667;28;20420;-73
2021/07/05 04:22:53;;;;;;;1.40;0.80;;;;;;;14.34;100.00;95500.25;5012768;28;20922;-73
2021/07/05 04:25:20;;;;;;;1.63;1.00;;;;;;;14.35;100.00;95486.25;5010984;28;20451;-73
2021/07/05 04:27:46;;;;;;;0.93;0.82;;;;;;;14.33;100.00;95491.59;5012370;28;20416;-73
2021/07/05 04:30:15;;;;;;;2.25;0.90;;;;;;;14.41;100.00;95498.78;5012285;28;20482;-73
2021/07/05 04:32:40;;;;;;;2.63;1.00;;;;;;;14.48;100.00;95500.75;5012362;28;20419;-73
2021/07/05 04:35:08;;;;;;;1.88;1.10;;;;;;;14.48;100.00;95505.16;5012192;28;20503;-73
2021/07/05 04:37:34;;;;;;;2.40;1.00;;;;;;;14.46;100.00;95512.25;5011970;28;20430;-73
2021/07/05 04:39:59;;;;;;;1.63;0.90;;;;;;;14.51;100.00;95508.38;5012101;28;20503;-73
2021/07/05 04:42:25;;;;;;;2.58;1.15;;;;;;;14.55;100.00;95503.72;5012035;28;20423;-73
2021/07/05 04:44:51;;;;;;;1.10;0.90;;;;;;;14.61;100.00;95495.41;5010730;28;20442;-73
2021/07/05 04:47:18;;;;;;;1.17;1.00;;;;;;;14.66;100.00;95488.03;5010714;28;20421;-73
2021/07/05 04:49:44;;;;;;;1.90;1.00;;;;;;;14.59;100.00;95489.47;5011998;28;20508;-73
2021/07/05 04:52:09;;;;;;;2.07;1.00;;;;;;;14.57;100.00;95487.94;5011941;28;20491;-73
2021/07/05 04:54:35;;;;;;;3.50;1.07;;;;;;;14.55;100.00;95485.47;5011859;28;20936;-73
2021/07/05 04:57:00;;;;;;;3.50;1.00;;;;;;;14.53;100.00;95482.16;5009717;28;20420;-73
2021/07/05 04:59:26;;;;;;;2.05;0.88;;;;;;;14.54;100.00;95478.63;5011940;28;20420;-73
2021/07/05 05:01:52;;;;;;;1.23;1.00;;;;;;;14.60;100.00;95470.28;5011780;28;20417;-73
2021/07/05 05:04:18;;;;;;;2.70;0.93;;;;;;;14.64;100.00;95478.66;5011820;28;20416;-73
2021/07/05 05:06:44;;;;;;;1.70;0.90;;;;;;;14.64;100.00;95487.31;5011551;28;20772;-73
2021/07/05 05:09:10;;;;;;;2.30;1.10;;;;;;;14.65;100.00;95498.59;5011594;28;20471;-73
2021/07/05 05:11:36;;;;;;;4.88;1.08;;;;;;;14.64;100.00;95489.09;5011753;28;20794;-73
2021/07/05 05:14:01;;;;;;;1.40;0.90;;;;;;;14.67;100.00;95501.88;5011569;28;20499;-72
2021/07/05 05:16:28;;;;;;;2.10;0.90;;;;;;;14.76;100.00;95501.94;5011396;28;20405;-73
2021/07/05 05:18:53;;;;;;;1.48;0.80;;;;;;;14.83;100.00;95504.00;5011536;28;20413;-73
2021/07/05 05:21:20;;;;;;;2.20;0.90;;;;;;;14.79;100.00;95524.31;5011353;28;20495;-72
2021/07/05 05:23:46;;;;;;;1.55;1.00;;;;;;;14.81;100.00;95524.19;5011413;28;20424;-73
2021/07/05 05:26:11;;;;;;;2.00;1.10;;;;;;;14.76;100.00;95519.38;5011176;28;20412;-73
2021/07/05 05:28:36;;;;;;;2.20;0.80;;;;;;;14.83;100.00;95523.13;5020489;28;20422;-73
2021/07/05 05:31:03;;;;;;;2.63;0.97;;;;;;;14.92;100.00;95516.28;5028586;28;20924;-73
2021/07/05 05:33:28;;;;;;;2.22;1.02;;;;;;;14.85;100.00;95526.41;5015456;28;20422;-73
2021/07/05 05:35:54;;;;;;;3.50;1.10;;;;;;;14.84;100.00;95524.75;5020438;28;20417;-72
2021/07/05 05:38:21;;;;;;;1.77;0.80;;;;;;;14.94;100.00;95527.41;5030787;28;20609;-72
2021/07/05 05:40:46;;;;;;;4.43;0.80;;;;;;;14.96;100.00;95528.13;5030497;28;20411;-72
2021/07/05 05:43:12;;;;;;;2.00;1.00;;;;;;;14.95;100.00;95518.66;5026824;28;20433;-72
2021/07/05 05:45:38;;;;;;;1.57;1.17;;;;;;;15.03;100.00;95523.22;5022553;28;20415;-72
2021/07/05 05:48:05;;;;;;;1.52;1.02;;;;;;;15.03;100.00;95520.63;5029893;28;20494;-72
2021/07/05 05:50:30;;;;;;;1.08;0.93;;;;;;;15.07;100.00;95508.97;5029436;28;20502;-73
2021/07/05 05:52:56;;;;;;;3.58;1.00;;;;;;;15.10;100.00;95516.53;5022331;28;20415;-73
2021/07/05 05:55:23;;;;;;;1.40;0.93;;;;;;;15.12;100.00;95509.38;5030697;28;20506;-73
2021/07/05 05:57:48;;;;;;;4.20;1.15;;;;;;;15.15;100.00;95515.16;5030679;28;20427;-73
2021/07/05 06:00:21;;;;;;;1.47;1.10;;;;;;;15.21;100.00;95522.47;5030979;28;20442;-73
2021/07/05 06:02:47;;;;;;;2.22;1.10;;;;;;;15.28;100.00;95519.34;5030377;28;20494;-73
2021/07/05 06:05:13;;;;;;;1.77;0.93;;;;;;;15.32;100.00;95518.13;5031858;28;20421;-73
2021/07/05 06:07:39;;;;;;;2.47;1.17;;;;;;;15.19;100.00;95513.94;5033416;28;20466;-73
2021/07/05 06:10:05;;;;;;;1.63;1.10;;;;;;;15.19;100.00;95513.94;5035939;28;20415;-73
2021/07/05 06:12:32;;;;;;;1.70;0.98;;;;;;;15.25;100.00;95496.97;5035758;28;20823;-73
2021/07/05 06:14:58;;;;;;;2.00;1.20;;;;;;;15.30;100.00;95501.78;5035034;28;20461;-73
2021/07/05 06:17:23;;;;;;;3.40;1.10;;;;;;;15.18;100.00;95503.66;5034466;28;20426;-73
2021/07/05 06:19:49;;;;;;;2.92;1.20;;;;;;;15.17;100.00;95500.22;5034615;28;20836;-73
2021/07/05 06:22:25;;;;;;;4.88;1.20;;;;;;;15.11;100.00;95507.75;5034379;28;20828;-73
2021/07/05 06:24:51;;;;;;;3.00;1.08;;;;;;;15.08;100.00;95519.25;5034420;28;20419;-73
2021/07/05 06:27:16;;;;;;;6.23;1.43;;;;;;;15.00;100.00;95514.69;5034207;28;20411;-73
2021/07/05 06:29:43;;;;;;;1.93;1.00;;;;;;;14.97;100.00;95508.91;5034420;28;20820;-73
2021/07/05 06:32:08;;;;;;;1.95;1.00;;;;;;;14.93;100.00;95510.94;5034258;28;20960;-73
2021/07/05 06:34:34;;;;;;;1.85;1.00;;;;;;;14.90;100.00;95502.53;5034314;28;20497;-73
2021/07/05 06:36:59;;;;;;;1.90;1.05;;;;;;;14.93;100.00;95516.16;5033912;28;20458;-73
2021/07/05 06:39:25;;;;;;;4.93;1.20;;;;;;;14.98;100.00;95510.53;5034114;28;20549;-73
2021/07/05 06:41:50;;;;;;;1.17;1.03;;;;;;;14.96;100.00;95512.47;5034221;28;20415;-74
2021/07/05 06:44:16;;;;;;;1.85;1.13;;;;;;;14.99;100.00;95512.22;5033720;28;20430;-74
2021/07/05 06:46:42;;;;;;;3.93;1.20;;;;;;;14.97;100.00;95512.34;5026258;28;20422;-74
2021/07/05 06:49:14;;;;;;;2.10;1.20;;;;;;;15.09;100.00;95502.66;5032935;28;20419;-73
2021/07/05 06:51:40;;;;;;;2.60;1.40;;;;;;;15.04;100.00;95517.84;5033426;28;20415;-74
2021/07/05 06:54:05;;;;;;;1.80;1.20;;;;;;;15.04;100.00;95512.66;5033373;28;20426;-74
2021/07/05 06:56:30;;;;;;;1.53;1.20;;;;;;;15.14;100.00;95504.88;5029937;28;20422;-73
2021/07/05 06:58:56;;;;;;;3.10;1.23;;;;;;;15.16;100.00;95506.38;5031148;28;20449;-73
2021/07/05 07:01:21;;;;;;;3.30;1.20;;;;;;;15.11;100.00;95502.53;5033074;28;20425;-74
2021/07/05 07:03:48;;;;;;;1.40;1.13;;;;;;;15.05;100.00;95503.03;5016722;28;20448;-74
2021/07/05 07:06:14;;;;;;;4.30;1.50;;;;;;;15.16;100.00;95508.16;5029034;28;20415;-74
2021/07/05 07:08:39;;;;;;;1.50;1.10;;;;;;;15.14;100.00;95499.66;5032994;28;20422;-74
2021/07/05 07:11:04;;;;;;;7.47;1.37;;;;;;;15.10;100.00;95501.69;5033110;28;20431;-74
2021/07/05 07:13:30;;;;;;;1.50;1.10;;;;;;;15.24;100.00;95503.97;5032953;28;20506;-73
2021/07/05 07:15:58;;;;;;;4.70;1.38;;;;;;;15.24;100.00;95503.97;5032615;28;20415;-74
2021/07/05 07:20:57;;;;;;;3.00;1.57;;;;;;;15.45;100.00;95497.84;5013146;28;20424;-76
2021/07/05 07:23:22;;;;;;;2.05;1.10;;;;;;;15.44;100.00;95493.59;5017600;28;20900;-74
2021/07/05 07:25:48;;;;;;;2.60;1.40;;;;;;;15.52;100.00;95498.16;5031090;28;20434;-74
2021/07/05 07:28:14;;;;;;;4.50;1.20;;;;;;;15.47;100.00;95498.56;5031626;28;20430;-73
2021/07/05 07:30:39;;;;;;;2.03;1.05;;;;;;;15.30;100.00;95494.78;5033012;28;20414;-73
2021/07/05 07:33:05;;;;;;;4.63;1.20;;;;;;;15.27;100.00;95486.38;5033023;28;20429;-74
2021/07/05 07:35:30;;;;;;;4.23;1.33;;;;;;;15.27;100.00;95489.81;5032800;28;20418;-74
2021/07/05 07:37:57;;;;;;;3.13;1.40;;;;;;;15.40;100.00;95500.03;5032883;28;21063;-74
2021/07/05 07:40:56;;;;;;;2.20;1.10;;;;;;;15.29;100.00;95505.34;5032974;28;20415;-74
2021/07/05 07:43:14;;;;;;;1.70;1.10;;;;;;;15.35;100.00;95503.03;5044895;23;20505;-73
2021/07/05 07:45:39;;;;;;;1.67;1.10;;;;;;;15.43;100.00;95494.56;5028373;28;20811;-73
2021/07/05 07:48:05;;;;;;;1.83;0.90;;;;;;;15.59;100.00;95487.03;5031250;28;20504;-73
2021/07/05 07:50:30;;;;;;;1.73;1.20;;;;;;;15.65;100.00;95491.75;5026320;28;20420;-73
2021/07/05 07:52:59;;;;;;;2.20;0.90;;;;;;;15.71;100.00;95487.78;5030772;28;20411;-71
2021/07/05 07:55:25;;;;;;;1.27;0.90;;;;;;;15.77;100.00;95497.69;5031949;28;20469;-73
2021/07/05 07:57:50;;;;;;;2.47;1.03;;;;;;;15.82;100.00;95497.28;5032253;28;20832;-73
2021/07/05 08:00:16;;;;;;;2.57;1.20;;;;;;;15.85;100.00;95492.63;5027643;28;20478;-71
2021/07/05 08:02:42;;;;;;;3.67;1.20;;;;;;;15.84;100.00;95488.34;5015861;28;20431;-72
2021/07/05 08:05:08;;;;;;;3.35;1.20;;;;;;;15.83;100.00;95485.88;5019664;28;20411;-74
2021/07/05 08:07:40;;;;;;;2.83;1.20;;;;;;;15.93;100.00;95489.31;5024554;28;20407;-74
2021/07/05 08:10:09;;;;;;;1.73;1.00;;;;;;;15.96;100.00;95494.28;5031660;28;20454;-74
2021/07/05 08:12:35;;;;;;;3.57;1.03;;;;;;;15.80;100.00;95496.59;5032013;28;20914;-75
2021/07/05 08:15:00;;;;;;;1.75;1.10;;;;;;;15.88;100.00;95488.91;5030601;28;20501;-74
2021/07/05 08:17:26;;;;;;;1.63;1.10;;;;;;;15.83;100.00;95493.69;5031155;28;20415;-74
2021/07/05 08:19:51;;;;;;;4.23;1.30;;;;;;;15.96;100.00;95496.88;5032067;28;20469;-73
2021/07/05 08:22:17;;;;;;;2.45;1.10;;;;;;;15.92;100.00;95487.69;5031924;28;20423;-73
2021/07/05 08:24:43;;;;;;;3.15;1.30;;;;;;;16.07;100.00;95483.69;5032149;28;20415;-73
2021/07/05 08:27:09;;;;;;;2.40;1.02;;;;;;;16.11;100.00;95489.47;5030738;28;20411;-73
2021/07/05 08:29:35;;;;;;;2.33;1.20;;;;;;;16.17;100.00;95495.00;5030436;28;20426;-72
2021/07/05 08:32:00;;;;;;;2.07;1.00;;;;;;;16.27;100.00;95491.53;5031206;28;20407;-73
2021/07/05 08:34:25;;;;;;;2.67;1.30;;;;;;;16.28;100.00;95482.72;5030561;28;20469;-73
2021/07/05 08:36:51;;;;;;;2.17;1.00;;;;;;;16.25;100.00;95489.06;5030023;28;20415;-73
2021/07/05 08:39:16;;;;;;;2.75;1.00;;;;;;;16.30;100.00;95481.63;5012133;28;20463;-73
2021/07/05 08:41:42;;;;;;;1.73;1.07;;;;;;;16.24;100.00;95487.44;5011861;28;20416;-73
2021/07/05 08:44:09;;;;;;;3.33;1.23;;;;;;;16.05;100.00;95485.63;5011930;28;20421;-73
2021/07/05 08:46:35;;;;;;;1.60;1.00;;;;;;;16.12;100.00;95489.31;5010342;28;20510;-73
2021/07/05 08:49:01;;;;;;;1.60;1.10;;;;;;;16.22;100.00;95494.56;5010657;28;20503;-73
2021/07/05 08:51:27;;;;;;;1.92;0.90;;;;;;;16.21;100.00;95498.97;5010799;28;20842;-73
2021/07/05 08:53:54;;;;;;;1.55;1.00;;;;;;;16.15;100.00;95489.06;5017449;28;20426;-73
2021/07/05 08:56:20;;;;;;;1.90;1.00;;;;;;;16.40;100.00;95494.72;5031205;28;20425;-73
2021/07/05 08:58:46;;;;;;;2.83;0.80;;;;;;;16.24;100.00;95497.88;5031299;28;20423;-73
2021/07/05 09:01:15;;;;;;;4.60;0.93;;;;;;;15.88;100.00;95496.75;5031379;28;20491;-74
2021/07/05 09:03:41;;;;;;;1.73;0.98;;;;;;;15.73;100.00;95485.88;5031192;28;21011;-74
2021/07/05 09:06:07;;;;;;;1.87;0.80;;;;;;;15.95;100.00;95490.03;5031320;28;20501;-74
2021/07/05 09:08:38;;;;;;;1.73;0.70;;;;;;;15.99;100.00;95494.00;5031279;28;20490;-74
2021/07/05 09:11:03;;;;;;;1.42;0.82;;;;;;;15.87;100.00;95495.06;5031314;28;20422;-74
2021/07/05 09:13:29;;;;;;;1.75;0.82;;;;;;;15.85;100.00;95494.41;5030918;28;20422;-75
2021/07/05 09:15:55;;;;;;;0.60;0.40;;;;;;;15.70;100.00;95492.19;5030951;28;20418;-76
2021/07/05 09:18:43;;;;;;;0.93;0.50;;;;;;;15.58;100.00;95493.22;5029625;28;20430;-74
2021/07/05 09:21:20;;;;;;;1.80;0.80;;;;;;;15.77;100.00;95489.03;5031153;28;20425;-74
2021/07/05 09:23:58;;;;;;;0.98;0.70;;;;;;;15.79;100.00;95489.72;5044685;28;20423;-74
2021/07/05 09:26:27;;;;;;;1.83;0.77;;;;;;;15.87;100.00;95484.63;5029514;28;20418;-74
2021/07/05 09:28:53;;;;;;;3.10;1.00;;;;;;;15.84;100.00;95475.31;5029604;28;20415;-74
2021/07/05 09:31:30;;;;;;;1.27;0.70;;;;;;;16.02;100.00;95474.59;5022608;28;20909;-74
2021/07/05 09:33:56;;;;;;;1.40;0.60;;;;;;;16.21;100.00;95472.84;5030815;28;20487;-74
2021/07/05 09:36:23;;;;;;;1.30;0.60;;;;;;;16.59;100.00;95472.94;5030479;28;20754;-73
2021/07/05 09:38:50;;;;;;;0.95;0.52;;;;;;;16.73;100.00;95467.28;5030825;28;20430;-74
2021/07/05 09:41:19;;;;;;;1.60;0.43;;;;;;;16.56;100.00;95471.44;5030838;28;20450;-74
2021/07/05 09:43:45;;;;;;;1.20;0.60;;;;;;;16.80;100.00;95470.19;5030794;28;20762;-74
2021/07/05 09:46:12;;;;;;;1.17;0.40;;;;;;;16.82;100.00;95474.28;5029229;28;20454;-75
2021/07/05 09:48:43;;;;;;;0.70;0.40;;;;;;;16.91;100.00;95470.84;5029469;28;20422;-74
2021/07/05 09:51:10;;;;;;;0.70;0.47;;;;;;;17.04;100.00;95470.50;5029375;28;20431;-74
2021/07/05 09:53:40;;;;;;;0.52;0.30;;;;;;;17.06;100.00;95471.22;5026925;28;20429;-74
2021/07/05 09:56:17;;;;;;;1.77;0.40;;;;;;;17.49;100.00;95463.69;5009458;28;20432;-74
2021/07/05 09:58:42;;;;;;;0.60;0.40;;;;;;;17.71;100.00;95471.16;5010841;28;20491;-74
2021/07/05 10:01:08;;;;;;;1.40;0.60;;;;;;;17.92;100.00;95468.31;5010815;28;20424;-74
2021/07/05 10:03:35;;;;;;;0.80;0.40;;;;;;;18.02;100.00;95474.31;5009584;28;20494;-75
2021/07/05 10:06:16;;;;;;;1.25;0.50;;;;;;;18.16;100.00;95462.44;5017896;28;20423;-74
2021/07/05 10:08:42;;;;;;;0.52;0.40;;;;;;;18.20;100.00;95471.66;5020226;28;20433;-74
2021/07/05 10:11:07;;;;;;;1.02;0.57;;;;;;;17.87;100.00;95470.53;5030134;28;20422;-74
2021/07/05 10:13:33;;;;;;;3.00;0.53;;;;;;;17.86;100.00;95472.31;5030410;28;20415;-74
2021/07/05 10:16:01;;;;;;;1.17;0.60;;;;;;;17.86;100.00;95480.19;5020934;28;20992;-74
2021/07/05 10:18:27;;;;;;;0.40;0.40;;;;;;;17.82;100.00;95467.53;5018909;28;20491;-74
2021/07/05 10:20:52;;;;;;;0.60;0.30;;;;;;;17.77;100.00;95456.69;5024876;28;20424;-73
2021/07/05 10:23:20;;;;;;;1.20;0.60;;;;;;;17.57;100.00;95450.69;5011733;28;20443;-73
2021/07/05 10:25:48;;;;;;;3.20;0.60;;;;;;;17.76;100.00;95452.41;5021582;28;20427;-74
2021/07/05 10:28:14;;;;;;;0.68;0.57;;;;;;;17.83;100.00;95459.50;5029697;28;20433;-73
2021/07/05 10:30:40;;;;;;;1.58;0.60;;;;;;;17.89;100.00;95447.63;5035406;28;20431;-74
2021/07/05 10:33:06;;;;;;;0.77;0.40;;;;;;;18.17;100.00;95440.53;5018168;28;20448;-74
2021/07/05 10:35:34;;;;;;;0.77;0.50;;;;;;;18.32;100.00;95446.06;5027079;28;20446;-73
2021/07/05 10:38:04;;;;;;;1.10;0.50;;;;;;;18.63;99.28;95439.38;5030415;28;20423;-73
2021/07/05 10:40:38;;;;;;;1.13;0.70;;;;;;;18.62;94.74;95437.75;5030390;28;20411;-73
2021/07/05 10:43:05;;;;;;;0.90;0.57;;;;;;;18.82;96.57;95434.94;5036268;28;20419;-73
2021/07/05 10:45:40;;;;;;;0.80;0.50;;;;;;;18.83;93.28;95441.84;5015701;28;20475;-73
2021/07/05 10:48:05;;;;;;;1.33;0.50;;;;;;;18.77;93.60;95442.47;5010716;28;20825;-73
2021/07/05 10:50:52;;;;;;;0.73;0.43;;;;;;;18.56;94.23;95440.16;5010721;28;20412;-74
2021/07/05 10:53:40;;;;;;;1.33;0.70;;;;;;;18.60;94.49;95444.13;5026661;28;20422;-74
2021/07/05 10:56:26;;;;;;;1.45;0.65;;;;;;;17.77;97.24;95446.22;5033532;28;20430;-75
2021/07/05 10:58:51;;;;;;;1.73;0.68;;;;;;;17.65;100.00;95437.72;5033941;28;20469;-74
2021/07/05 11:01:36;;;;;;;1.37;0.70;;;;;;;17.41;100.00;95444.31;5033711;28;20419;-74
2021/07/05 11:04:18;;;;;;;1.95;0.90;;;;;;;17.52;100.00;95445.91;5026309;28;20475;-74
2021/07/05 11:06:44;;;;;;;1.02;0.73;;;;;;;17.44;100.00;95448.44;5033445;28;20427;-73
2021/07/05 11:09:17;;;;;;;1.48;0.73;;;;;;;17.50;100.00;95444.41;5033754;28;20780;-73
2021/07/05 11:11:51;;;;;;;1.90;0.80;;;;;;;17.60;100.00;95443.38;5032214;28;20462;-73
2021/07/05 11:14:20;;;;;;;1.75;0.60;;;;;;;17.55;100.00;95450.84;5033401;28;20443;-73
2021/07/05 11:17:03;;;;;;;2.80;0.75;;;;;;;17.64;100.00;95439.47;5023741;28;20423;-72
2021/07/05 11:19:35;;;;;;;1.40;0.60;;;;;;;17.64;100.00;95441.28;5015662;28;20500;-74
2021/07/05 11:22:05;;;;;;;0.85;0.70;;;;;;;17.66;100.00;95447.22;5013589;28;20421;-74
2021/07/05 11:24:50;;;;;;;1.40;0.70;;;;;;;17.93;99.53;95450.78;5023181;28;20450;-74
2021/07/05 11:27:39;;;;;;;0.73;0.60;;;;;;;17.94;100.00;95447.19;5033285;28;20446;-74
2021/07/05 11:30:23;;;;;;;1.42;0.65;;;;;;;17.92;99.10;95452.56;5033293;28;20469;-74